Latest METARs, TAFs and NOTAMs for CYFB


---------------------------------------------------------------------------
	(OBSERVATIONS)
CYFB 230119Z 17019G25KT 15SM DRSN BKN040 M02/M06 A2960 RMK SC7
    SLP028=
CYFB 230100Z 16022G27KT 15SM DRSN BKN040 M02/M06 A2959 RMK SC7
    INTMT -SN SLP026=
CYFB 230000Z 15019G25KT 15SM -SN DRSN SCT009 OVC028 M01/M04 A2959
    RMK SF3SC5 SLP023=
CYFB 222300Z 14022G31KT 15SM -SN DRSN OVC009 M01/M03 A2957 RMK
    ST8 SLP017=
---------------------------------------------------------------------------
	(FC)
Sorry, FC For CYFB Not Found
---------------------------------------------------------------------------
	(TERMINAL AREA FORECAST)
CYFB 222338Z 2300/2324 14020G30KT P6SM -SN SCT009 OVC025
    TEMPO 2300/2303 21/2SM -SHSN BLSN OVC009
    FM230300 15015G25KT P6SM -SN SCT015 BKN030
    TEMPO 2303/2306 3SM -SN BKN015
    FM230600 16010KT P6SM -SN SCT010 BKN025
    FM231200 13010KT 6SM -SN BKN020
    PROB30 2312/2318 3SM -SG BKN005
    FM231800 11010KT 3SM -SHSN SCT020 OVC030
    RMK NXT FCST BY 230600Z=
---------------------------------------------------------------------------
	(NOTAMS)


CYFB 05/023 CYFB AMEND PUB: NEW MET TOWER 634455N 682448W (APRX
    3.8 NM SE AD) 197 FT AGL 1027 MSL. NOT LGTD, PAINTED. 16
    MAY 18:25 2017 UNTIL PERM. CREATED: 16 MAY 18:25 2017

CYFB 10/028 YFB- FROBAY VOR 117.4 UNMONITORED. 20 OCT 22:00 2017
    UNTIL 20 JAN 23:59 2018. CREATED: 20 OCT 20:59 2017

CYFB 11/006 CYFB TWY EDGE LGT E U/S. 06 NOV 15:45 2017 UNTIL
    01 FEB 23:00 2018. CREATED: 06 NOV 15:48 2017

CYFB 11/014 CYFB UNMANNED AIR VEHICLE ACT RADIUS 5 NM CENTRE
    634524N 683322W (AD) SFC TO 300 FT AGL. WINGSPAN 10 INS.
    WEIGHT 1 LB. COLOUR GREY. SR-SS DLY. 18 NOV 20:36 2017 UNTIL
    26 NOV 19:12 2017. CREATED: 18 NOV 20:39 2017

CYFB 11/021 CYFB HIGH INTST APCH LGT 34 U/S. 22 NOV 13:10 2017
    UNTIL 08 DEC 22:00 2017. CREATED: 22 NOV 13:14 2017

CYFB B2335/17 AMEND PUB: NEW MET TOWER 634455N 682448W (APRX
    3.8 NM SE AD) 197 FT AGL 1027 MSL. NOT LGTD, PAINTED. 16
    MAY 18:25 2017 UNTIL PERM. CREATED: 16 MAY 18:26 2017

CYFB B5790/17 TWY EDGE LGT E U/S. 06 NOV 15:45 2017 UNTIL 01
    FEB 23:00 2018. CREATED: 06 NOV 15:48 2017

CYFB B6112/17 HIGH INTST APCH LGT 34 U/S. 22 NOV 13:10 2017 UNTIL
    08 DEC 22:00 2017. CREATED: 22 NOV 13:14 2017

---------------------------------------------------------------------------